Gould Hill, Vermont
Current Conditions -  °F | °C
As of 8:03 PM on Tuesday 21 Oct 2014 (Local Time) from KMPV Reporting Station
Light Rain Light Rain  
Wind Chill: 45°   Ceiling: 400
Heat Index: 45°   Visibility: 6mi
Dew Point: 45°   Wind: 3mph
Humidity: 100%   Direction: 310°NW
Pressure: 30.07"   Gusts: NA
Location:  44.2861°N, 72.6004°W
Report Text: KMPV 220003Z AUTO 31003KT 6SM -RA BR OVC004 07/07 A3007 RMK AO2 RAB01 CIG 002V007 P0000 T00720072
Loading
Personal Weather Stations






























Interactive Weather Map
Tropical Storm Tracking
New forecast layout! Learn more

10-Day Weather Forecast

Advertisements
Track Severe Weather on mobile